sensor_id;sensor_type;location;lat;lon;timestamp;pressure;altitude;pressure_sealevel;temperature;humidity
2875;BME280;1445;52.600;13.328;2023-02-28T00:00:20;102492.56;;;0.46;100.00
2875;BME280;1445;52.600;13.328;2023-02-28T00:02:46;102492.97;;;0.43;100.00
2875;BME280;1445;52.600;13.328;2023-02-28T00:05:14;102487.00;;;0.33;100.00
2875;BME280;1445;52.600;13.328;2023-02-28T00:07:40;102496.09;;;0.26;100.00
2875;BME280;1445;52.600;13.328;2023-02-28T00:10:07;102486.34;;;0.31;100.00
2875;BME280;1445;52.600;13.328;2023-02-28T00:12:34;102495.25;;;0.25;100.00
2875;BME280;1445;52.600;13.328;2023-02-28T00:15:00;102495.34;;;0.17;100.00
2875;BME280;1445;52.600;13.328;2023-02-28T00:17:25;102496.75;;;0.13;100.00
2875;BME280;1445;52.600;13.328;2023-02-28T00:19:51;102491.44;;;0.05;100.00
2875;BME280;1445;52.600;13.328;2023-02-28T00:22:19;102502.00;;;-0.01;100.00
2875;BME280;1445;52.600;13.328;2023-02-28T00:24:45;102495.09;;;-0.03;100.00
2875;BME280;1445;52.600;13.328;2023-02-28T00:27:11;102497.72;;;-0.10;100.00
2875;BME280;1445;52.600;13.328;2023-02-28T00:29:36;102498.66;;;-0.17;100.00
2875;BME280;1445;52.600;13.328;2023-02-28T00:32:02;102508.00;;;-0.20;100.00
2875;BME280;1445;52.600;13.328;2023-02-28T00:34:28;102507.53;;;-0.23;100.00
2875;BME280;1445;52.600;13.328;2023-02-28T00:36:54;102514.47;;;-0.21;100.00
2875;BME280;1445;52.600;13.328;2023-02-28T00:39:19;102510.41;;;-0.25;100.00
2875;BME280;1445;52.600;13.328;2023-02-28T00:41:45;102514.63;;;-0.22;100.00
2875;BME280;1445;52.600;13.328;2023-02-28T00:44:10;102514.63;;;-0.22;100.00
2875;BME280;1445;52.600;13.328;2023-02-28T00:46:36;102513.31;;;-0.27;100.00
2875;BME280;1445;52.600;13.328;2023-02-28T00:49:01;102514.06;;;-0.33;100.00
2875;BME280;1445;52.600;13.328;2023-02-28T00:51:27;102512.75;;;-0.37;100.00
2875;BME280;1445;52.600;13.328;2023-02-28T00:53:52;102516.84;;;-0.41;100.00
2875;BME280;1445;52.600;13.328;2023-02-28T00:56:18;102518.63;;;-0.33;100.00
2875;BME280;1445;52.600;13.328;2023-02-28T00:58:43;102519.78;;;-0.28;100.00
2875;BME280;1445;52.600;13.328;2023-02-28T01:01:08;102515.19;;;-0.27;100.00
2875;BME280;1445;52.600;13.328;2023-02-28T01:03:34;102519.56;;;-0.26;100.00
2875;BME280;1445;52.600;13.328;2023-02-28T01:06:00;102516.41;;;-0.30;100.00
2875;BME280;1445;52.600;13.328;2023-02-28T01:08:25;102514.41;;;-0.36;100.00
2875;BME280;1445;52.600;13.328;2023-02-28T01:10:51;102511.91;;;-0.37;100.00
2875;BME280;1445;52.600;13.328;2023-02-28T01:13:18;102517.69;;;-0.40;100.00
2875;BME280;1445;52.600;13.328;2023-02-28T01:15:49;102525.81;;;-0.40;100.00
2875;BME280;1445;52.600;13.328;2023-02-28T01:18:16;102522.44;;;-0.42;100.00
2875;BME280;1445;52.600;13.328;2023-02-28T01:20:41;102521.81;;;-0.44;100.00
2875;BME280;1445;52.600;13.328;2023-02-28T01:23:07;102519.25;;;-0.46;100.00
2875;BME280;1445;52.600;13.328;2023-02-28T01:25:35;102525.56;;;-0.45;100.00
2875;BME280;1445;52.600;13.328;2023-02-28T01:28:01;102515.09;;;-0.49;100.00
2875;BME280;1445;52.600;13.328;2023-02-28T01:30:26;102517.69;;;-0.40;100.00
2875;BME280;1445;52.600;13.328;2023-02-28T01:32:52;102511.81;;;-0.44;100.00
2875;BME280;1445;52.600;13.328;2023-02-28T01:35:19;102509.66;;;-0.49;100.00
2875;BME280;1445;52.600;13.328;2023-02-28T01:37:44;102511.34;;;-0.47;100.00
2875;BME280;1445;52.600;13.328;2023-02-28T01:40:10;102502.00;;;-0.45;100.00
2875;BME280;1445;52.600;13.328;2023-02-28T01:42:36;102511.13;;;-0.46;100.00
2875;BME280;1445;52.600;13.328;2023-02-28T01:47:42;102508.34;;;-0.53;100.00
2875;BME280;1445;52.600;13.328;2023-02-28T01:50:15;102511.69;;;-0.51;100.00
2875;BME280;1445;52.600;13.328;2023-02-28T01:52:43;102504.25;;;-0.49;100.00
2875;BME280;1445;52.600;13.328;2023-02-28T01:55:12;102505.81;;;-0.54;100.00
2875;BME280;1445;52.600;13.328;2023-02-28T01:57:42;102510.41;;;-0.55;100.00
2875;BME280;1445;52.600;13.328;2023-02-28T02:00:13;102509.25;;;-0.60;100.00
2875;BME280;1445;52.600;13.328;2023-02-28T02:02:46;102519.59;;;-0.64;100.00
2875;BME280;1445;52.600;13.328;2023-02-28T02:05:16;102507.66;;;-0.69;100.00
2875;BME280;1445;52.600;13.328;2023-02-28T02:07:44;102506.16;;;-0.72;100.00
2875;BME280;1445;52.600;13.328;2023-02-28T02:10:16;102509.06;;;-0.74;100.00
2875;BME280;1445;52.600;13.328;2023-02-28T02:15:21;102503.81;;;-0.75;100.00
2875;BME280;1445;52.600;13.328;2023-02-28T02:17:52;102510.06;;;-0.75;100.00
2875;BME280;1445;52.600;13.328;2023-02-28T02:42:39;102513.81;;;-0.76;100.00
2875;BME280;1445;52.600;13.328;2023-02-28T02:45:16;102510.63;;;-0.79;100.00
2875;BME280;1445;52.600;13.328;2023-02-28T02:47:44;102512.84;;;-0.83;100.00
2875;BME280;1445;52.600;13.328;2023-02-28T02:50:17;102521.34;;;-0.86;100.00
2875;BME280;1445;52.600;13.328;2023-02-28T02:52:49;102510.22;;;-0.91;100.00
2875;BME280;1445;52.600;13.328;2023-02-28T02:55:18;102512.44;;;-0.94;100.00
2875;BME280;1445;52.600;13.328;2023-02-28T02:57:53;102510.75;;;-0.96;100.00
2875;BME280;1445;52.600;13.328;2023-02-28T03:00:23;102509.78;;;-1.03;100.00
2875;BME280;1445;52.600;13.328;2023-02-28T03:02:52;102512.84;;;-1.06;100.00
2875;BME280;1445;52.600;13.328;2023-02-28T03:05:30;102520.50;;;-1.09;100.00
2875;BME280;1445;52.600;13.328;2023-02-28T03:07:57;102521.88;;;-1.13;100.00
2875;BME280;1445;52.600;13.328;2023-02-28T03:10:32;102516.00;;;-1.17;100.00
2875;BME280;1445;52.600;13.328;2023-02-28T03:13:24;102519.78;;;-1.26;100.00
2875;BME280;1445;52.600;13.328;2023-02-28T03:19:19;102525.72;;;-1.31;100.00
2875;BME280;1445;52.600;13.328;2023-02-28T03:27:24;102529.16;;;-1.37;100.00
2875;BME280;1445;52.600;13.328;2023-02-28T03:30:05;102533.06;;;-1.39;100.00
2875;BME280;1445;52.600;13.328;2023-02-28T03:32:41;102537.78;;;-1.41;100.00
2875;BME280;1445;52.600;13.328;2023-02-28T03:35:16;102537.63;;;-1.40;100.00
2875;BME280;1445;52.600;13.328;2023-02-28T03:37:48;102531.88;;;-1.37;100.00
2875;BME280;1445;52.600;13.328;2023-02-28T03:40:25;102536.41;;;-1.37;100.00
2875;BME280;1445;52.600;13.328;2023-02-28T03:42:57;102539.31;;;-1.39;100.00
2875;BME280;1445;52.600;13.328;2023-02-28T03:45:26;102541.81;;;-1.37;100.00
2875;BME280;1445;52.600;13.328;2023-02-28T03:48:02;102547.41;;;-1.39;100.00
2875;BME280;1445;52.600;13.328;2023-02-28T03:50:40;102540.50;;;-1.41;100.00
2875;BME280;1445;52.600;13.328;2023-02-28T03:53:20;102531.75;;;-1.43;100.00
2875;BME280;1445;52.600;13.328;2023-02-28T03:55:52;102538.97;;;-1.44;100.00
2875;BME280;1445;52.600;13.328;2023-02-28T03:58:38;102539.72;;;-1.50;100.00
2875;BME280;1445;52.600;13.328;2023-02-28T04:03:46;102541.59;;;-1.51;100.00
2875;BME280;1445;52.600;13.328;2023-02-28T04:06:18;102544.94;;;-1.49;100.00
2875;BME280;1445;52.600;13.328;2023-02-28T04:08:44;102547.34;;;-1.54;100.00
2875;BME280;1445;52.600;13.328;2023-02-28T04:13:57;102545.16;;;-1.58;100.00
2875;BME280;1445;52.600;13.328;2023-02-28T04:16:22;102547.75;;;-1.65;100.00
2875;BME280;1445;52.600;13.328;2023-02-28T04:18:48;102541.81;;;-1.69;100.00
2875;BME280;1445;52.600;13.328;2023-02-28T04:21:13;102548.59;;;-1.73;100.00
2875;BME280;1445;52.600;13.328;2023-02-28T04:23:39;102547.44;;;-1.78;100.00
2875;BME280;1445;52.600;13.328;2023-02-28T04:26:05;102548.63;;;-1.81;100.00
2875;BME280;1445;52.600;13.328;2023-02-28T04:28:31;102545.13;;;-1.89;100.00
2875;BME280;1445;52.600;13.328;2023-02-28T04:31:06;102550.88;;;-1.93;100.00
2875;BME280;1445;52.600;13.328;2023-02-28T04:33:32;102549.72;;;-1.98;100.00
2875;BME280;1445;52.600;13.328;2023-02-28T04:36:06;102556.63;;;-1.96;100.00
2875;BME280;1445;52.600;13.328;2023-02-28T04:38:34;102558.84;;;-1.99;100.00
2875;BME280;1445;52.600;13.328;2023-02-28T04:41:00;102560.88;;;-2.01;100.00
2875;BME280;1445;52.600;13.328;2023-02-28T04:43:27;102549.56;;;-2.05;100.00
2875;BME280;1445;52.600;13.328;2023-02-28T04:45:54;102555.31;;;-2.08;100.00
2875;BME280;1445;52.600;13.328;2023-02-28T04:48:26;102553.97;;;-2.12;100.00
2875;BME280;1445;52.600;13.328;2023-02-28T04:50:52;102551.47;;;-2.13;100.00
2875;BME280;1445;52.600;13.328;2023-02-28T04:53:18;102552.63;;;-2.16;100.00
2875;BME280;1445;52.600;13.328;2023-02-28T04:55:44;102554.31;;;-2.15;100.00
2875;BME280;1445;52.600;13.328;2023-02-28T04:58:09;102562.09;;;-2.12;100.00
2875;BME280;1445;52.600;13.328;2023-02-28T05:00:35;102553.66;;;-2.17;100.00
2875;BME280;1445;52.600;13.328;2023-02-28T05:03:00;102560.41;;;-2.21;100.00
2875;BME280;1445;52.600;13.328;2023-02-28T05:05:26;102563.63;;;-2.26;100.00
2875;BME280;1445;52.600;13.328;2023-02-28T05:07:51;102565.31;;;-2.25;100.00
2875;BME280;1445;52.600;13.328;2023-02-28T05:10:18;102570.91;;;-2.26;100.00
2875;BME280;1445;52.600;13.328;2023-02-28T05:12:44;102568.19;;;-2.26;100.00
2875;BME280;1445;52.600;13.328;2023-02-28T05:15:13;102572.25;;;-2.30;100.00
2875;BME280;1445;52.600;13.328;2023-02-28T05:17:39;102571.06;;;-2.36;100.00
2875;BME280;1445;52.600;13.328;2023-02-28T05:20:05;102582.72;;;-2.44;100.00
2875;BME280;1445;52.600;13.328;2023-02-28T05:22:30;102576.69;;;-2.46;100.00
2875;BME280;1445;52.600;13.328;2023-02-28T05:24:56;102578.84;;;-2.49;100.00
2875;BME280;1445;52.600;13.328;2023-02-28T05:27:21;102590.00;;;-2.52;100.00
2875;BME280;1445;52.600;13.328;2023-02-28T05:29:47;102588.47;;;-2.55;100.00
2875;BME280;1445;52.600;13.328;2023-02-28T05:32:13;102580.72;;;-2.58;100.00
2875;BME280;1445;52.600;13.328;2023-02-28T05:34:39;102584.25;;;-2.57;100.00
2875;BME280;1445;52.600;13.328;2023-02-28T05:37:06;102586.31;;;-2.59;100.00
2875;BME280;1445;52.600;13.328;2023-02-28T05:39:35;102586.81;;;-2.56;100.00
2875;BME280;1445;52.600;13.328;2023-02-28T05:42:01;102584.44;;;-2.59;100.00
2875;BME280;1445;52.600;13.328;2023-02-28T05:44:26;102590.69;;;-2.58;100.00
2875;BME280;1445;52.600;13.328;2023-02-28T05:46:52;102587.31;;;-2.69;100.00
2875;BME280;1445;52.600;13.328;2023-02-28T05:49:17;102594.22;;;-2.66;100.00
2875;BME280;1445;52.600;13.328;2023-02-28T05:51:42;102604.00;;;-2.73;100.00
2875;BME280;1445;52.600;13.328;2023-02-28T05:54:08;102605.50;;;-2.71;100.00
2875;BME280;1445;52.600;13.328;2023-02-28T05:56:33;102605.19;;;-2.68;100.00
2875;BME280;1445;52.600;13.328;2023-02-28T05:59:04;102602.66;;;-2.69;100.00
2875;BME280;1445;52.600;13.328;2023-02-28T06:01:38;102606.72;;;-2.65;100.00
2875;BME280;1445;52.600;13.328;2023-02-28T06:04:06;102600.97;;;-2.62;100.00
2875;BME280;1445;52.600;13.328;2023-02-28T06:06:31;102601.81;;;-2.61;100.00
2875;BME280;1445;52.600;13.328;2023-02-28T06:08:59;102606.56;;;-2.55;100.00
2875;BME280;1445;52.600;13.328;2023-02-28T06:11:26;102605.72;;;-2.56;100.00
2875;BME280;1445;52.600;13.328;2023-02-28T06:13:57;102609.75;;;-2.52;100.00
2875;BME280;1445;52.600;13.328;2023-02-28T06:16:23;102608.41;;;-2.48;100.00
2875;BME280;1445;52.600;13.328;2023-02-28T06:18:49;102606.22;;;-2.52;100.00
2875;BME280;1445;52.600;13.328;2023-02-28T06:21:14;102613.28;;;-2.51;100.00
2875;BME280;1445;52.600;13.328;2023-02-28T06:23:40;102606.88;;;-2.50;100.00
2875;BME280;1445;52.600;13.328;2023-02-28T06:26:05;102610.41;;;-2.50;100.00
2875;BME280;1445;52.600;13.328;2023-02-28T06:28:31;102619.22;;;-2.56;100.00
2875;BME280;1445;52.600;13.328;2023-02-28T06:30:57;102620.22;;;-2.49;100.00
2875;BME280;1445;52.600;13.328;2023-02-28T06:33:22;102628.31;;;-2.49;100.00
2875;BME280;1445;52.600;13.328;2023-02-28T06:35:52;102628.66;;;-2.44;100.00
2875;BME280;1445;52.600;13.328;2023-02-28T06:38:17;102621.88;;;-2.40;100.00
2875;BME280;1445;52.600;13.328;2023-02-28T06:40:44;102631.69;;;-2.30;100.00
2875;BME280;1445;52.600;13.328;2023-02-28T06:43:10;102626.44;;;-2.24;100.00
2875;BME280;1445;52.600;13.328;2023-02-28T06:45:42;102634.53;;;-2.16;100.00
2875;BME280;1445;52.600;13.328;2023-02-28T06:48:07;102631.31;;;-2.11;100.00
2875;BME280;1445;52.600;13.328;2023-02-28T06:50:33;102634.19;;;-1.96;100.00
2875;BME280;1445;52.600;13.328;2023-02-28T06:52:58;102641.22;;;-1.87;100.00
2875;BME280;1445;52.600;13.328;2023-02-28T06:55:24;102642.94;;;-1.86;100.00
2875;BME280;1445;52.600;13.328;2023-02-28T06:57:49;102636.66;;;-1.78;100.00
2875;BME280;1445;52.600;13.328;2023-02-28T07:00:16;102631.41;;;-1.72;100.00
2875;BME280;1445;52.600;13.328;2023-02-28T07:02:41;102638.31;;;-1.61;100.00
2875;BME280;1445;52.600;13.328;2023-02-28T07:05:07;102640.97;;;-1.53;100.00
2875;BME280;1445;52.600;13.328;2023-02-28T07:07:33;102637.38;;;-1.45;100.00
2875;BME280;1445;52.600;13.328;2023-02-28T07:09:59;102634.00;;;-1.39;100.00
2875;BME280;1445;52.600;13.328;2023-02-28T07:12:24;102624.34;;;-1.33;100.00
2875;BME280;1445;52.600;13.328;2023-02-28T07:14:50;102637.63;;;-1.24;100.00
2875;BME280;1445;52.600;13.328;2023-02-28T07:17:15;102639.34;;;-1.23;100.00
2875;BME280;1445;52.600;13.328;2023-02-28T07:19:41;102640.13;;;-1.14;100.00
2875;BME280;1445;52.600;13.328;2023-02-28T07:22:06;102628.94;;;-1.11;100.00
2875;BME280;1445;52.600;13.328;2023-02-28T07:24:32;102631.25;;;-1.00;100.00
2875;BME280;1445;52.600;13.328;2023-02-28T07:26:57;102637.34;;;-0.98;100.00
2875;BME280;1445;52.600;13.328;2023-02-28T07:29:24;102634.38;;;-0.88;100.00
2875;BME280;1445;52.600;13.328;2023-02-28T07:31:50;102643.97;;;-0.77;100.00
2875;BME280;1445;52.600;13.328;2023-02-28T07:34:18;102635.94;;;-0.70;100.00
2875;BME280;1445;52.600;13.328;2023-02-28T07:36:44;102639.25;;;-0.60;100.00
2875;BME280;1445;52.600;13.328;2023-02-28T07:39:09;102637.16;;;-0.50;100.00
2875;BME280;1445;52.600;13.328;2023-02-28T07:41:35;102640.00;;;-0.43;100.00
2875;BME280;1445;52.600;13.328;2023-02-28T07:44:04;102632.72;;;-0.28;100.00
2875;BME280;1445;52.600;13.328;2023-02-28T07:46:30;102637.63;;;-0.23;100.00
2875;BME280;1445;52.600;13.328;2023-02-28T07:49:00;102645.59;;;-0.07;100.00
2875;BME280;1445;52.600;13.328;2023-02-28T07:51:28;102641.78;;;0.02;100.00
2875;BME280;1445;52.600;13.328;2023-02-28T07:53:53;102633.97;;;0.22;100.00
2875;BME280;1445;52.600;13.328;2023-02-28T07:56:19;102625.53;;;0.32;100.00
2875;BME280;1445;52.600;13.328;2023-02-28T07:58:44;102630.97;;;0.46;100.00
2875;BME280;1445;52.600;13.328;2023-02-28T08:01:10;102624.97;;;0.51;100.00
2875;BME280;1445;52.600;13.328;2023-02-28T08:03:37;102617.13;;;0.56;100.00
2875;BME280;1445;52.600;13.328;2023-02-28T08:06:07;102630.66;;;0.71;100.00
2875;BME280;1445;52.600;13.328;2023-02-28T08:08:33;102626.38;;;0.98;100.00
2875;BME280;1445;52.600;13.328;2023-02-28T08:10:59;102617.06;;;1.07;100.00
2875;BME280;1445;52.600;13.328;2023-02-28T08:13:26;102618.06;;;1.21;100.00
2875;BME280;1445;52.600;13.328;2023-02-28T08:15:53;102618.44;;;1.39;100.00
2875;BME280;1445;52.600;13.328;2023-02-28T08:18:19;102606.03;;;1.52;100.00
2875;BME280;1445;52.600;13.328;2023-02-28T08:20:44;102600.94;;;1.70;100.00
2875;BME280;1445;52.600;13.328;2023-02-28T08:23:10;102602.06;;;1.82;100.00
2875;BME280;1445;52.600;13.328;2023-02-28T08:25:35;102597.13;;;1.92;100.00
2875;BME280;1445;52.600;13.328;2023-02-28T08:28:00;102593.72;;;2.12;100.00
2875;BME280;1445;52.600;13.328;2023-02-28T08:30:26;102589.16;;;2.19;100.00
2875;BME280;1445;52.600;13.328;2023-02-28T08:32:51;102587.41;;;2.39;100.00
2875;BME280;1445;52.600;13.328;2023-02-28T08:35:17;102587.03;;;2.49;100.00
2875;BME280;1445;52.600;13.328;2023-02-28T08:37:42;102587.47;;;2.53;100.00
2875;BME280;1445;52.600;13.328;2023-02-28T08:40:08;102584.84;;;2.86;100.00
2875;BME280;1445;52.600;13.328;2023-02-28T08:42:34;102587.63;;;2.99;100.00
2875;BME280;1445;52.600;13.328;2023-02-28T08:44:59;102590.16;;;3.14;100.00
2875;BME280;1445;52.600;13.328;2023-02-28T08:47:25;102592.09;;;3.27;100.00
2875;BME280;1445;52.600;13.328;2023-02-28T08:49:50;102594.81;;;3.33;100.00
2875;BME280;1445;52.600;13.328;2023-02-28T08:52:15;102587.03;;;3.44;100.00
2875;BME280;1445;52.600;13.328;2023-02-28T08:54:41;102593.56;;;3.56;100.00
2875;BME280;1445;52.600;13.328;2023-02-28T08:57:06;102593.16;;;3.66;100.00
2875;BME280;1445;52.600;13.328;2023-02-28T08:59:32;102591.69;;;3.76;100.00
2875;BME280;1445;52.600;13.328;2023-02-28T09:01:57;102590.19;;;3.87;100.00
2875;BME280;1445;52.600;13.328;2023-02-28T09:04:23;102599.41;;;4.06;100.00
2875;BME280;1445;52.600;13.328;2023-02-28T09:06:48;102598.97;;;4.09;100.00
2875;BME280;1445;52.600;13.328;2023-02-28T09:09:15;102599.59;;;4.18;98.31
2875;BME280;1445;52.600;13.328;2023-02-28T09:11:40;102605.25;;;4.23;90.31
2875;BME280;1445;52.600;13.328;2023-02-28T09:14:06;102599.97;;;4.28;94.03
2875;BME280;1445;52.600;13.328;2023-02-28T09:16:32;102593.41;;;4.49;100.00
2875;BME280;1445;52.600;13.328;2023-02-28T09:18:59;102593.00;;;4.45;100.00
2875;BME280;1445;52.600;13.328;2023-02-28T09:21:24;102591.28;;;4.58;100.00
2875;BME280;1445;52.600;13.328;2023-02-28T09:23:50;102589.78;;;4.68;100.00
2875;BME280;1445;52.600;13.328;2023-02-28T09:26:24;102592.03;;;4.78;100.00
2875;BME280;1445;52.600;13.328;2023-02-28T09:28:50;102592.66;;;4.80;100.00
2875;BME280;1445;52.600;13.328;2023-02-28T09:31:19;102588.31;;;5.04;100.00
2875;BME280;1445;52.600;13.328;2023-02-28T09:33:49;102582.97;;;5.16;97.25
2875;BME280;1445;52.600;13.328;2023-02-28T09:36:15;102584.28;;;5.13;85.56
2875;BME280;1445;52.600;13.328;2023-02-28T09:38:40;102590.09;;;5.23;84.66
2875;BME280;1445;52.600;13.328;2023-02-28T09:41:31;102589.41;;;5.35;85.33
2875;BME280;1445;52.600;13.328;2023-02-28T09:44:02;102578.41;;;5.66;89.00
2875;BME280;1445;52.600;13.328;2023-02-28T09:49:00;102582.69;;;6.06;75.11
2875;BME280;1445;52.600;13.328;2023-02-28T09:53:53;102588.25;;;5.99;66.99
2875;BME280;1445;52.600;13.328;2023-02-28T09:56:26;102585.06;;;6.20;67.70
2875;BME280;1445;52.600;13.328;2023-02-28T10:07:17;102582.25;;;6.64;70.19
2875;BME280;1445;52.600;13.328;2023-02-28T10:09:47;102590.47;;;6.82;63.48
2875;BME280;1445;52.600;13.328;2023-02-28T10:12:16;102588.41;;;6.78;68.56
2875;BME280;1445;52.600;13.328;2023-02-28T10:14:45;102584.88;;;6.89;67.53
2875;BME280;1445;52.600;13.328;2023-02-28T10:17:21;102590.78;;;7.04;63.90
2875;BME280;1445;52.600;13.328;2023-02-28T10:22:20;102589.31;;;7.20;68.21
2875;BME280;1445;52.600;13.328;2023-02-28T10:24:52;102592.72;;;7.57;64.17
2875;BME280;1445;52.600;13.328;2023-02-28T10:27:19;102597.75;;;7.60;60.08
2875;BME280;1445;52.600;13.328;2023-02-28T10:29:47;102598.97;;;8.00;57.80
2875;BME280;1445;52.600;13.328;2023-02-28T10:32:17;102587.34;;;8.21;57.99
2875;BME280;1445;52.600;13.328;2023-02-28T10:34:43;102588.69;;;8.42;55.24
2875;BME280;1445;52.600;13.328;2023-02-28T10:37:10;102584.28;;;7.94;51.24
2875;BME280;1445;52.600;13.328;2023-02-28T10:39:41;102580.69;;;8.41;55.32
2875;BME280;1445;52.600;13.328;2023-02-28T10:42:25;102586.84;;;8.59;52.94
2875;BME280;1445;52.600;13.328;2023-02-28T10:47:59;102584.50;;;8.92;51.39
2875;BME280;1445;52.600;13.328;2023-02-28T10:56:04;102581.91;;;9.02;47.28
2875;BME280;1445;52.600;13.328;2023-02-28T11:00:58;102569.56;;;9.16;47.98
2875;BME280;1445;52.600;13.328;2023-02-28T11:03:35;102571.66;;;9.60;45.68
2875;BME280;1445;52.600;13.328;2023-02-28T11:06:06;102568.47;;;9.85;43.05
2875;BME280;1445;52.600;13.328;2023-02-28T11:08:33;102555.69;;;9.95;45.43
2875;BME280;1445;52.600;13.328;2023-02-28T11:11:04;102552.00;;;10.07;44.18
2875;BME280;1445;52.600;13.328;2023-02-28T11:13:35;102554.56;;;10.13;43.82
2875;BME280;1445;52.600;13.328;2023-02-28T11:16:07;102543.88;;;10.17;41.06
2875;BME280;1445;52.600;13.328;2023-02-28T11:18:41;102547.13;;;10.31;41.51
2875;BME280;1445;52.600;13.328;2023-02-28T11:21:08;102535.72;;;10.44;40.47
2875;BME280;1445;52.600;13.328;2023-02-28T11:23:35;102537.91;;;10.64;39.48
2875;BME280;1445;52.600;13.328;2023-02-28T11:26:03;102539.56;;;10.65;39.58
2875;BME280;1445;52.600;13.328;2023-02-28T11:28:33;102546.22;;;10.69;38.58
2875;BME280;1445;52.600;13.328;2023-02-28T11:31:25;102540.31;;;11.09;37.64
2875;BME280;1445;52.600;13.328;2023-02-28T11:33:52;102535.94;;;11.13;37.41
2875;BME280;1445;52.600;13.328;2023-02-28T11:36:31;102534.19;;;11.34;36.81
2875;BME280;1445;52.600;13.328;2023-02-28T11:39:07;102537.91;;;11.50;39.03
2875;BME280;1445;52.600;13.328;2023-02-28T11:46:47;102537.59;;;12.26;35.13
2875;BME280;1445;52.600;13.328;2023-02-28T11:58:23;102527.91;;;13.22;36.64
2875;BME280;1445;52.600;13.328;2023-02-28T12:11:56;102527.41;;;13.30;33.30
2875;BME280;1445;52.600;13.328;2023-02-28T12:28:24;102502.03;;;14.19;30.82
2875;BME280;1445;52.600;13.328;2023-02-28T12:31:01;102491.50;;;14.16;31.98
2875;BME280;1445;52.600;13.328;2023-02-28T12:33:34;102492.72;;;14.49;30.83
2875;BME280;1445;52.600;13.328;2023-02-28T12:36:05;102480.72;;;14.69;32.35
2875;BME280;1445;52.600;13.328;2023-02-28T12:38:39;102479.78;;;14.84;30.96
2875;BME280;1445;52.600;13.328;2023-02-28T12:41:31;102478.28;;;14.57;30.67
2875;BME280;1445;52.600;13.328;2023-02-28T12:44:15;102479.75;;;14.34;31.20
2875;BME280;1445;52.600;13.328;2023-02-28T12:46:45;102476.66;;;13.60;31.26
2875;BME280;1445;52.600;13.328;2023-02-28T12:49:56;102471.09;;;13.81;30.70
2875;BME280;1445;52.600;13.328;2023-02-28T12:52:03;102463.00;;;13.90;31.02
2875;BME280;1445;52.600;13.328;2023-02-28T12:59:51;102456.69;;;13.74;29.99
2875;BME280;1445;52.600;13.328;2023-02-28T13:10:52;102449.50;;;12.71;32.23
2875;BME280;1445;52.600;13.328;2023-02-28T13:13:23;102445.38;;;13.14;32.07
2875;BME280;1445;52.600;13.328;2023-02-28T13:16:01;102438.03;;;13.90;31.92
2875;BME280;1445;52.600;13.328;2023-02-28T13:20:59;102445.19;;;14.06;29.76
2875;BME280;1445;52.600;13.328;2023-02-28T13:26:21;102441.78;;;14.29;29.67
2875;BME280;1445;52.600;13.328;2023-02-28T13:28:59;102449.69;;;13.92;29.26
2875;BME280;1445;52.600;13.328;2023-02-28T13:31:25;102438.50;;;14.67;29.65
2875;BME280;1445;52.600;13.328;2023-02-28T13:38:43;102434.72;;;13.98;30.08
2875;BME280;1445;52.600;13.328;2023-02-28T13:41:45;102441.53;;;15.10;29.31
2875;BME280;1445;52.600;13.328;2023-02-28T13:44:22;102435.78;;;15.01;28.48
2875;BME280;1445;52.600;13.328;2023-02-28T14:05:27;102411.81;;;17.38;26.30
2875;BME280;1445;52.600;13.328;2023-02-28T14:07:57;102412.91;;;16.91;27.26
2875;BME280;1445;52.600;13.328;2023-02-28T14:10:45;102410.66;;;16.93;27.23
2875;BME280;1445;52.600;13.328;2023-02-28T14:15:59;102415.31;;;16.41;27.22
2875;BME280;1445;52.600;13.328;2023-02-28T14:18:33;102411.25;;;16.71;27.46
2875;BME280;1445;52.600;13.328;2023-02-28T14:37:38;102407.66;;;17.36;25.84
2875;BME280;1445;52.600;13.328;2023-02-28T14:40:15;102409.66;;;17.03;25.52
2875;BME280;1445;52.600;13.328;2023-02-28T14:42:47;102402.56;;;16.91;25.98
2875;BME280;1445;52.600;13.328;2023-02-28T14:45:20;102410.66;;;16.55;26.29
2875;BME280;1445;52.600;13.328;2023-02-28T14:47:46;102408.44;;;17.23;26.89
2875;BME280;1445;52.600;13.328;2023-02-28T14:50:20;102408.81;;;17.35;27.09
2875;BME280;1445;52.600;13.328;2023-02-28T14:52:46;102403.75;;;17.04;27.15
2875;BME280;1445;52.600;13.328;2023-02-28T14:55:17;102403.88;;;17.73;26.02
2875;BME280;1445;52.600;13.328;2023-02-28T14:57:53;102397.78;;;17.71;25.38
2875;BME280;1445;52.600;13.328;2023-02-28T15:02:47;102395.72;;;18.04;24.79
2875;BME280;1445;52.600;13.328;2023-02-28T15:07:38;102390.34;;;17.53;25.88
2875;BME280;1445;52.600;13.328;2023-02-28T15:10:18;102388.06;;;17.69;25.13
2875;BME280;1445;52.600;13.328;2023-02-28T15:15:16;102391.28;;;17.89;24.83
2875;BME280;1445;52.600;13.328;2023-02-28T15:17:48;102388.50;;;17.76;25.00
2875;BME280;1445;52.600;13.328;2023-02-28T15:20:15;102383.97;;;17.20;26.39
2875;BME280;1445;52.600;13.328;2023-02-28T15:22:42;102386.78;;;17.33;24.90
2875;BME280;1445;52.600;13.328;2023-02-28T15:25:10;102386.00;;;17.60;25.39
2875;BME280;1445;52.600;13.328;2023-02-28T15:27:44;102378.41;;;17.33;25.39
2875;BME280;1445;52.600;13.328;2023-02-28T15:30:20;102375.66;;;17.75;25.11
2875;BME280;1445;52.600;13.328;2023-02-28T15:33:02;102376.69;;;17.65;25.02
2875;BME280;1445;52.600;13.328;2023-02-28T15:35:30;102380.97;;;17.90;24.64
2875;BME280;1445;52.600;13.328;2023-02-28T15:38:00;102371.97;;;17.52;25.06
2875;BME280;1445;52.600;13.328;2023-02-28T15:40:49;102380.50;;;17.28;25.46
2875;BME280;1445;52.600;13.328;2023-02-28T15:45:50;102374.69;;;16.40;26.36
2875;BME280;1445;52.600;13.328;2023-02-28T15:48:20;102381.31;;;16.82;26.69
2875;BME280;1445;52.600;13.328;2023-02-28T15:50:52;102372.91;;;17.01;25.50
2875;BME280;1445;52.600;13.328;2023-02-28T15:53:22;102377.47;;;16.02;28.26
2875;BME280;1445;52.600;13.328;2023-02-28T15:56:00;102383.63;;;16.18;26.89
2875;BME280;1445;52.600;13.328;2023-02-28T15:58:26;102384.19;;;15.96;27.04
2875;BME280;1445;52.600;13.328;2023-02-28T16:01:21;102377.13;;;15.85;27.47
2875;BME280;1445;52.600;13.328;2023-02-28T16:03:51;102385.44;;;15.66;28.46